sensor_id;sensor_type;location;lat;lon;timestamp;temperature;humidity
23801;DHT22;12081;48.614;10.226;2022-08-30T00:00:49;15.10;99.90
23801;DHT22;12081;48.614;10.226;2022-08-30T00:03:46;15.00;99.90
23801;DHT22;12081;48.614;10.226;2022-08-30T00:06:30;15.00;99.90
23801;DHT22;12081;48.614;10.226;2022-08-30T00:09:15;15.00;99.90
23801;DHT22;12081;48.614;10.226;2022-08-30T00:11:59;14.90;99.90
23801;DHT22;12081;48.614;10.226;2022-08-30T00:14:43;14.80;99.90
23801;DHT22;12081;48.614;10.226;2022-08-30T00:17:27;14.80;99.90
23801;DHT22;12081;48.614;10.226;2022-08-30T00:20:14;15.20;99.90
23801;DHT22;12081;48.614;10.226;2022-08-30T00:22:59;14.70;99.90
23801;DHT22;12081;48.614;10.226;2022-08-30T00:25:43;14.80;99.90
23801;DHT22;12081;48.614;10.226;2022-08-30T00:28:28;14.70;99.90
23801;DHT22;12081;48.614;10.226;2022-08-30T00:31:13;14.60;99.90
23801;DHT22;12081;48.614;10.226;2022-08-30T00:33:56;14.40;99.90
23801;DHT22;12081;48.614;10.226;2022-08-30T00:36:41;14.40;99.90
23801;DHT22;12081;48.614;10.226;2022-08-30T00:39:26;14.40;99.90
23801;DHT22;12081;48.614;10.226;2022-08-30T00:42:11;14.30;99.90
23801;DHT22;12081;48.614;10.226;2022-08-30T00:44:56;14.30;99.90
23801;DHT22;12081;48.614;10.226;2022-08-30T00:47:40;14.30;99.90
23801;DHT22;12081;48.614;10.226;2022-08-30T00:50:28;14.50;99.90
23801;DHT22;12081;48.614;10.226;2022-08-30T00:53:19;15.50;99.90
23801;DHT22;12081;48.614;10.226;2022-08-30T00:56:04;14.30;99.90
23801;DHT22;12081;48.614;10.226;2022-08-30T01:01:23;14.20;99.90
23801;DHT22;12081;48.614;10.226;2022-08-30T01:04:08;15.50;99.90
23801;DHT22;12081;48.614;10.226;2022-08-30T01:06:53;14.70;99.90
23801;DHT22;12081;48.614;10.226;2022-08-30T01:09:38;15.00;99.90
23801;DHT22;12081;48.614;10.226;2022-08-30T01:12:22;14.90;99.90
23801;DHT22;12081;48.614;10.226;2022-08-30T01:15:07;14.30;99.90
23801;DHT22;12081;48.614;10.226;2022-08-30T01:17:51;13.90;99.90
23801;DHT22;12081;48.614;10.226;2022-08-30T01:20:43;13.90;99.90
23801;DHT22;12081;48.614;10.226;2022-08-30T01:23:31;15.20;99.90
23801;DHT22;12081;48.614;10.226;2022-08-30T01:26:16;14.90;99.90
23801;DHT22;12081;48.614;10.226;2022-08-30T01:29:06;14.50;99.90
23801;DHT22;12081;48.614;10.226;2022-08-30T01:31:52;13.70;99.90
23801;DHT22;12081;48.614;10.226;2022-08-30T01:34:36;15.30;99.90
23801;DHT22;12081;48.614;10.226;2022-08-30T01:37:27;13.60;99.90
23801;DHT22;12081;48.614;10.226;2022-08-30T01:40:13;13.70;99.90
23801;DHT22;12081;48.614;10.226;2022-08-30T01:42:59;15.00;99.90
23801;DHT22;12081;48.614;10.226;2022-08-30T01:45:43;14.60;99.90
23801;DHT22;12081;48.614;10.226;2022-08-30T01:48:27;15.10;99.90
23801;DHT22;12081;48.614;10.226;2022-08-30T01:51:13;13.50;99.90
23801;DHT22;12081;48.614;10.226;2022-08-30T01:53:58;15.10;99.90
23801;DHT22;12081;48.614;10.226;2022-08-30T01:56:42;14.50;99.90
23801;DHT22;12081;48.614;10.226;2022-08-30T01:59:26;13.70;99.90
23801;DHT22;12081;48.614;10.226;2022-08-30T02:02:10;14.40;99.90
23801;DHT22;12081;48.614;10.226;2022-08-30T02:04:55;14.50;99.90
23801;DHT22;12081;48.614;10.226;2022-08-30T02:07:39;14.40;99.90
23801;DHT22;12081;48.614;10.226;2022-08-30T02:10:23;13.30;99.90
23801;DHT22;12081;48.614;10.226;2022-08-30T02:13:08;13.30;99.90
23801;DHT22;12081;48.614;10.226;2022-08-30T02:15:52;15.20;99.90
23801;DHT22;12081;48.614;10.226;2022-08-30T02:18:40;13.30;99.90
23801;DHT22;12081;48.614;10.226;2022-08-30T02:21:25;14.40;99.90
23801;DHT22;12081;48.614;10.226;2022-08-30T02:24:10;14.20;99.90
23801;DHT22;12081;48.614;10.226;2022-08-30T02:26:55;14.30;99.90
23801;DHT22;12081;48.614;10.226;2022-08-30T02:29:39;13.80;99.90
23801;DHT22;12081;48.614;10.226;2022-08-30T02:32:22;14.60;99.90
23801;DHT22;12081;48.614;10.226;2022-08-30T02:35:07;13.10;99.90
23801;DHT22;12081;48.614;10.226;2022-08-30T02:37:52;13.10;99.90
23801;DHT22;12081;48.614;10.226;2022-08-30T02:40:37;14.30;99.90
23801;DHT22;12081;48.614;10.226;2022-08-30T02:43:22;14.60;99.90
23801;DHT22;12081;48.614;10.226;2022-08-30T02:46:06;14.10;99.90
23801;DHT22;12081;48.614;10.226;2022-08-30T02:48:50;14.00;99.90
23801;DHT22;12081;48.614;10.226;2022-08-30T02:51:34;14.60;99.90
23801;DHT22;12081;48.614;10.226;2022-08-30T02:54:19;13.90;99.90
23801;DHT22;12081;48.614;10.226;2022-08-30T02:57:03;13.90;99.90
23801;DHT22;12081;48.614;10.226;2022-08-30T02:59:49;12.90;99.90
23801;DHT22;12081;48.614;10.226;2022-08-30T03:02:33;14.10;99.90
23801;DHT22;12081;48.614;10.226;2022-08-30T03:05:18;14.00;99.90
23801;DHT22;12081;48.614;10.226;2022-08-30T03:08:02;14.60;99.90
23801;DHT22;12081;48.614;10.226;2022-08-30T03:10:46;12.80;99.90
23801;DHT22;12081;48.614;10.226;2022-08-30T03:13:30;12.80;99.90
23801;DHT22;12081;48.614;10.226;2022-08-30T03:16:15;14.30;99.90
23801;DHT22;12081;48.614;10.226;2022-08-30T03:18:58;14.10;99.90
23801;DHT22;12081;48.614;10.226;2022-08-30T03:21:43;14.30;99.90
23801;DHT22;12081;48.614;10.226;2022-08-30T03:24:28;13.90;99.90
23801;DHT22;12081;48.614;10.226;2022-08-30T03:27:12;14.30;99.90
23801;DHT22;12081;48.614;10.226;2022-08-30T03:29:56;13.60;99.90
23801;DHT22;12081;48.614;10.226;2022-08-30T03:32:41;13.00;99.90
23801;DHT22;12081;48.614;10.226;2022-08-30T03:35:25;13.30;99.90
23801;DHT22;12081;48.614;10.226;2022-08-30T03:38:10;12.60;99.90
23801;DHT22;12081;48.614;10.226;2022-08-30T03:40:54;12.60;99.90
23801;DHT22;12081;48.614;10.226;2022-08-30T03:43:38;13.90;99.90
23801;DHT22;12081;48.614;10.226;2022-08-30T03:46:22;12.90;99.90
23801;DHT22;12081;48.614;10.226;2022-08-30T03:49:07;12.70;99.90
23801;DHT22;12081;48.614;10.226;2022-08-30T03:51:52;13.00;99.90
23801;DHT22;12081;48.614;10.226;2022-08-30T03:54:36;13.00;99.90
23801;DHT22;12081;48.614;10.226;2022-08-30T03:57:21;12.40;99.90
23801;DHT22;12081;48.614;10.226;2022-08-30T04:00:06;13.00;99.90
23801;DHT22;12081;48.614;10.226;2022-08-30T04:02:52;12.50;99.90
23801;DHT22;12081;48.614;10.226;2022-08-30T04:05:36;13.40;99.90
23801;DHT22;12081;48.614;10.226;2022-08-30T04:08:20;14.00;99.90
23801;DHT22;12081;48.614;10.226;2022-08-30T04:11:05;14.40;99.90
23801;DHT22;12081;48.614;10.226;2022-08-30T04:13:50;12.40;99.90
23801;DHT22;12081;48.614;10.226;2022-08-30T04:16:35;13.00;99.90
23801;DHT22;12081;48.614;10.226;2022-08-30T04:19:19;13.70;99.90
23801;DHT22;12081;48.614;10.226;2022-08-30T04:22:03;12.30;99.90
23801;DHT22;12081;48.614;10.226;2022-08-30T04:24:48;12.30;99.90
23801;DHT22;12081;48.614;10.226;2022-08-30T04:27:32;13.70;99.90
23801;DHT22;12081;48.614;10.226;2022-08-30T04:30:18;13.90;99.90
23801;DHT22;12081;48.614;10.226;2022-08-30T04:33:02;12.30;99.90
23801;DHT22;12081;48.614;10.226;2022-08-30T04:35:48;13.80;99.90
23801;DHT22;12081;48.614;10.226;2022-08-30T04:38:34;13.80;99.90
23801;DHT22;12081;48.614;10.226;2022-08-30T04:41:19;14.20;99.90
23801;DHT22;12081;48.614;10.226;2022-08-30T04:44:04;13.00;99.90
23801;DHT22;12081;48.614;10.226;2022-08-30T05:02:48;12.50;99.90
23801;DHT22;12081;48.614;10.226;2022-08-30T05:05:33;13.80;99.90
23801;DHT22;12081;48.614;10.226;2022-08-30T05:08:23;13.10;99.90
23801;DHT22;12081;48.614;10.226;2022-08-30T05:11:07;13.60;99.90
23801;DHT22;12081;48.614;10.226;2022-08-30T05:13:52;14.10;99.90
23801;DHT22;12081;48.614;10.226;2022-08-30T05:16:36;14.00;99.90
23801;DHT22;12081;48.614;10.226;2022-08-30T05:19:20;14.40;99.90
23801;DHT22;12081;48.614;10.226;2022-08-30T05:30:58;13.70;99.90
23801;DHT22;12081;48.614;10.226;2022-08-30T05:33:43;14.10;99.90
23801;DHT22;12081;48.614;10.226;2022-08-30T05:36:30;14.10;99.90
23801;DHT22;12081;48.614;10.226;2022-08-30T05:39:14;14.10;99.90
23801;DHT22;12081;48.614;10.226;2022-08-30T05:41:58;14.70;99.90
23801;DHT22;12081;48.614;10.226;2022-08-30T05:44:42;15.50;99.90
23801;DHT22;12081;48.614;10.226;2022-08-30T05:47:26;15.30;99.90
23801;DHT22;12081;48.614;10.226;2022-08-30T05:50:11;14.90;99.90
23801;DHT22;12081;48.614;10.226;2022-08-30T05:52:55;15.00;99.90
23801;DHT22;12081;48.614;10.226;2022-08-30T05:55:40;14.60;99.90
23801;DHT22;12081;48.614;10.226;2022-08-30T05:58:24;14.80;99.90
23801;DHT22;12081;48.614;10.226;2022-08-30T06:01:31;15.20;99.90
23801;DHT22;12081;48.614;10.226;2022-08-30T06:04:16;15.50;99.90
23801;DHT22;12081;48.614;10.226;2022-08-30T06:07:01;16.80;99.90
23801;DHT22;12081;48.614;10.226;2022-08-30T06:09:46;17.60;99.90
23801;DHT22;12081;48.614;10.226;2022-08-30T06:12:30;17.20;99.90
23801;DHT22;12081;48.614;10.226;2022-08-30T06:15:14;17.90;99.90
23801;DHT22;12081;48.614;10.226;2022-08-30T06:17:58;19.10;99.90
23801;DHT22;12081;48.614;10.226;2022-08-30T06:20:44;19.40;99.90
23801;DHT22;12081;48.614;10.226;2022-08-30T06:23:30;20.30;99.90
23801;DHT22;12081;48.614;10.226;2022-08-30T06:26:15;21.90;99.90
23801;DHT22;12081;48.614;10.226;2022-08-30T06:29:00;21.20;99.90
23801;DHT22;12081;48.614;10.226;2022-08-30T06:31:44;21.70;99.90
23801;DHT22;12081;48.614;10.226;2022-08-30T06:34:29;21.90;99.90
23801;DHT22;12081;48.614;10.226;2022-08-30T06:37:14;22.70;99.90
23801;DHT22;12081;48.614;10.226;2022-08-30T06:39:59;23.10;99.90
23801;DHT22;12081;48.614;10.226;2022-08-30T06:42:43;23.40;99.90
23801;DHT22;12081;48.614;10.226;2022-08-30T06:45:27;25.20;99.90
23801;DHT22;12081;48.614;10.226;2022-08-30T06:48:14;23.90;99.90
23801;DHT22;12081;48.614;10.226;2022-08-30T06:50:58;24.70;97.50
23801;DHT22;12081;48.614;10.226;2022-08-30T06:53:42;25.80;98.70
23801;DHT22;12081;48.614;10.226;2022-08-30T06:56:26;25.10;96.10
23801;DHT22;12081;48.614;10.226;2022-08-30T06:59:10;25.70;94.70
23801;DHT22;12081;48.614;10.226;2022-08-30T07:01:55;26.40;90.10
23801;DHT22;12081;48.614;10.226;2022-08-30T07:04:39;26.80;87.70
23801;DHT22;12081;48.614;10.226;2022-08-30T07:07:23;27.30;83.90
23801;DHT22;12081;48.614;10.226;2022-08-30T07:10:07;27.50;79.20
23801;DHT22;12081;48.614;10.226;2022-08-30T07:12:52;27.70;76.70
23801;DHT22;12081;48.614;10.226;2022-08-30T07:15:40;28.00;75.00
23801;DHT22;12081;48.614;10.226;2022-08-30T07:18:25;28.00;74.70
23801;DHT22;12081;48.614;10.226;2022-08-30T07:21:37;28.10;72.60
23801;DHT22;12081;48.614;10.226;2022-08-30T07:24:21;28.30;72.60
23801;DHT22;12081;48.614;10.226;2022-08-30T07:27:05;29.10;71.40
23801;DHT22;12081;48.614;10.226;2022-08-30T07:29:52;29.40;68.70
23801;DHT22;12081;48.614;10.226;2022-08-30T07:32:36;29.80;67.10
23801;DHT22;12081;48.614;10.226;2022-08-30T07:35:31;29.90;66.20
23801;DHT22;12081;48.614;10.226;2022-08-30T07:38:15;30.10;64.00
23801;DHT22;12081;48.614;10.226;2022-08-30T07:41:00;30.60;64.00
23801;DHT22;12081;48.614;10.226;2022-08-30T07:43:45;31.20;63.90
23801;DHT22;12081;48.614;10.226;2022-08-30T07:46:29;31.30;62.50
23801;DHT22;12081;48.614;10.226;2022-08-30T07:49:13;31.80;59.00
23801;DHT22;12081;48.614;10.226;2022-08-30T07:51:57;32.00;58.10
23801;DHT22;12081;48.614;10.226;2022-08-30T07:54:41;32.10;57.00
23801;DHT22;12081;48.614;10.226;2022-08-30T07:57:26;32.20;57.30
23801;DHT22;12081;48.614;10.226;2022-08-30T08:00:10;32.30;56.40
23801;DHT22;12081;48.614;10.226;2022-08-30T08:02:55;32.50;56.40
23801;DHT22;12081;48.614;10.226;2022-08-30T08:05:41;32.80;55.40
23801;DHT22;12081;48.614;10.226;2022-08-30T08:08:25;32.90;54.40
23801;DHT22;12081;48.614;10.226;2022-08-30T08:11:18;32.70;54.10
23801;DHT22;12081;48.614;10.226;2022-08-30T08:14:03;32.90;55.40
23801;DHT22;12081;48.614;10.226;2022-08-30T08:16:48;33.50;55.20
23801;DHT22;12081;48.614;10.226;2022-08-30T08:19:33;33.70;53.60
23801;DHT22;12081;48.614;10.226;2022-08-30T08:22:17;33.50;53.30
23801;DHT22;12081;48.614;10.226;2022-08-30T08:25:01;33.30;53.60
23801;DHT22;12081;48.614;10.226;2022-08-30T08:27:49;33.50;54.10
23801;DHT22;12081;48.614;10.226;2022-08-30T08:30:36;33.90;53.50
23801;DHT22;12081;48.614;10.226;2022-08-30T08:33:20;34.40;52.90
23801;DHT22;12081;48.614;10.226;2022-08-30T08:36:04;34.80;51.80
23801;DHT22;12081;48.614;10.226;2022-08-30T08:38:48;35.20;51.50
23801;DHT22;12081;48.614;10.226;2022-08-30T08:41:58;34.80;51.00
23801;DHT22;12081;48.614;10.226;2022-08-30T08:48:02;35.20;50.80
23801;DHT22;12081;48.614;10.226;2022-08-30T08:50:47;35.00;51.40
23801;DHT22;12081;48.614;10.226;2022-08-30T08:54:04;34.70;51.00
23801;DHT22;12081;48.614;10.226;2022-08-30T08:56:49;34.60;51.10
23801;DHT22;12081;48.614;10.226;2022-08-30T08:59:33;34.70;51.60
23801;DHT22;12081;48.614;10.226;2022-08-30T09:02:27;35.10;51.60
23801;DHT22;12081;48.614;10.226;2022-08-30T09:05:18;35.50;50.60
23801;DHT22;12081;48.614;10.226;2022-08-30T09:08:09;36.10;50.00
23801;DHT22;12081;48.614;10.226;2022-08-30T09:11:00;36.30;49.50
23801;DHT22;12081;48.614;10.226;2022-08-30T09:13:45;36.40;48.50
23801;DHT22;12081;48.614;10.226;2022-08-30T09:16:52;36.40;49.20
23801;DHT22;12081;48.614;10.226;2022-08-30T09:19:42;36.40;49.40
23801;DHT22;12081;48.614;10.226;2022-08-30T09:22:40;36.40;49.00
23801;DHT22;12081;48.614;10.226;2022-08-30T09:25:29;36.10;48.90
23801;DHT22;12081;48.614;10.226;2022-08-30T09:28:14;36.00;48.10
23801;DHT22;12081;48.614;10.226;2022-08-30T09:31:18;35.90;48.50
23801;DHT22;12081;48.614;10.226;2022-08-30T09:36:51;37.70;47.50
23801;DHT22;12081;48.614;10.226;2022-08-30T09:39:35;38.40;46.50
23801;DHT22;12081;48.614;10.226;2022-08-30T09:42:25;39.20;45.60
23801;DHT22;12081;48.614;10.226;2022-08-30T09:45:29;39.30;44.40
23801;DHT22;12081;48.614;10.226;2022-08-30T09:48:33;40.10;43.60
23801;DHT22;12081;48.614;10.226;2022-08-30T09:51:38;39.10;42.80
23801;DHT22;12081;48.614;10.226;2022-08-30T09:54:31;39.10;43.10
23801;DHT22;12081;48.614;10.226;2022-08-30T09:57:47;38.80;43.10
23801;DHT22;12081;48.614;10.226;2022-08-30T10:00:44;39.20;43.30
23801;DHT22;12081;48.614;10.226;2022-08-30T10:06:43;40.00;42.00
23801;DHT22;12081;48.614;10.226;2022-08-30T10:09:50;39.80;41.30
23801;DHT22;12081;48.614;10.226;2022-08-30T10:13:00;39.50;42.10
23801;DHT22;12081;48.614;10.226;2022-08-30T10:15:50;39.10;41.70
23801;DHT22;12081;48.614;10.226;2022-08-30T10:21:59;39.50;41.20
23801;DHT22;12081;48.614;10.226;2022-08-30T10:24:50;38.40;41.60
23801;DHT22;12081;48.614;10.226;2022-08-30T10:27:59;38.30;41.80
23801;DHT22;12081;48.614;10.226;2022-08-30T10:30:51;38.00;42.20
23801;DHT22;12081;48.614;10.226;2022-08-30T10:33:46;37.90;42.40
23801;DHT22;12081;48.614;10.226;2022-08-30T10:36:41;38.00;42.10
23801;DHT22;12081;48.614;10.226;2022-08-30T10:39:30;37.10;42.30
23801;DHT22;12081;48.614;10.226;2022-08-30T10:42:24;36.80;43.00
23801;DHT22;12081;48.614;10.226;2022-08-30T10:45:13;36.60;44.00
23801;DHT22;12081;48.614;10.226;2022-08-30T10:48:26;36.80;43.90
23801;DHT22;12081;48.614;10.226;2022-08-30T10:51:29;37.00;43.20
23801;DHT22;12081;48.614;10.226;2022-08-30T10:54:19;37.30;43.50
23801;DHT22;12081;48.614;10.226;2022-08-30T10:57:05;37.40;42.70
23801;DHT22;12081;48.614;10.226;2022-08-30T11:00:00;37.20;43.30
23801;DHT22;12081;48.614;10.226;2022-08-30T11:06:15;37.50;41.80
23801;DHT22;12081;48.614;10.226;2022-08-30T11:09:13;38.00;40.40
23801;DHT22;12081;48.614;10.226;2022-08-30T11:12:21;38.20;40.60
23801;DHT22;12081;48.614;10.226;2022-08-30T11:15:29;37.90;40.30
23801;DHT22;12081;48.614;10.226;2022-08-30T11:18:14;38.00;39.90
23801;DHT22;12081;48.614;10.226;2022-08-30T11:21:37;37.50;40.30
23801;DHT22;12081;48.614;10.226;2022-08-30T11:24:23;37.60;41.10
23801;DHT22;12081;48.614;10.226;2022-08-30T11:27:08;37.40;41.60
23801;DHT22;12081;48.614;10.226;2022-08-30T11:35:55;37.80;40.00
23801;DHT22;12081;48.614;10.226;2022-08-30T11:44:30;38.40;39.40
23801;DHT22;12081;48.614;10.226;2022-08-30T11:50:47;39.20;39.10
23801;DHT22;12081;48.614;10.226;2022-08-30T11:56:41;38.90;37.90
23801;DHT22;12081;48.614;10.226;2022-08-30T12:02:43;38.90;38.10
23801;DHT22;12081;48.614;10.226;2022-08-30T12:14:06;37.50;39.20
23801;DHT22;12081;48.614;10.226;2022-08-30T12:16:50;37.40;40.00
23801;DHT22;12081;48.614;10.226;2022-08-30T12:19:56;37.50;39.90
23801;DHT22;12081;48.614;10.226;2022-08-30T12:22:40;37.30;39.70
23801;DHT22;12081;48.614;10.226;2022-08-30T12:25:29;37.10;39.40
23801;DHT22;12081;48.614;10.226;2022-08-30T12:28:24;37.00;39.30
23801;DHT22;12081;48.614;10.226;2022-08-30T12:31:14;37.10;39.20
23801;DHT22;12081;48.614;10.226;2022-08-30T12:34:00;37.40;39.50
23801;DHT22;12081;48.614;10.226;2022-08-30T12:39:36;37.10;41.40
23801;DHT22;12081;48.614;10.226;2022-08-30T12:42:24;36.80;41.30
23801;DHT22;12081;48.614;10.226;2022-08-30T12:45:15;36.20;40.90
23801;DHT22;12081;48.614;10.226;2022-08-30T12:48:03;35.50;41.40
23801;DHT22;12081;48.614;10.226;2022-08-30T12:50:54;34.80;42.40
23801;DHT22;12081;48.614;10.226;2022-08-30T12:53:41;34.50;43.10
23801;DHT22;12081;48.614;10.226;2022-08-30T12:59:43;33.40;44.10
23801;DHT22;12081;48.614;10.226;2022-08-30T13:02:49;33.30;44.90
23801;DHT22;12081;48.614;10.226;2022-08-30T13:11:29;33.30;45.00
23801;DHT22;12081;48.614;10.226;2022-08-30T13:14:30;33.20;44.20
23801;DHT22;12081;48.614;10.226;2022-08-30T13:23:04;32.50;45.00
23801;DHT22;12081;48.614;10.226;2022-08-30T13:25:49;32.20;45.00
23801;DHT22;12081;48.614;10.226;2022-08-30T13:28:49;31.90;45.90
23801;DHT22;12081;48.614;10.226;2022-08-30T13:31:33;31.50;46.00
23801;DHT22;12081;48.614;10.226;2022-08-30T13:34:19;31.60;47.10
23801;DHT22;12081;48.614;10.226;2022-08-30T13:37:05;31.50;46.50
23801;DHT22;12081;48.614;10.226;2022-08-30T13:39:50;31.70;46.40
23801;DHT22;12081;48.614;10.226;2022-08-30T13:42:35;31.60;47.40
23801;DHT22;12081;48.614;10.226;2022-08-30T13:45:19;31.60;47.20
23801;DHT22;12081;48.614;10.226;2022-08-30T13:48:04;31.60;46.90
23801;DHT22;12081;48.614;10.226;2022-08-30T13:50:49;31.10;47.30
23801;DHT22;12081;48.614;10.226;2022-08-30T13:53:34;31.10;48.10
23801;DHT22;12081;48.614;10.226;2022-08-30T13:56:18;31.30;47.50
23801;DHT22;12081;48.614;10.226;2022-08-30T13:59:03;31.20;46.90
23801;DHT22;12081;48.614;10.226;2022-08-30T14:01:48;31.20;46.40
23801;DHT22;12081;48.614;10.226;2022-08-30T14:04:32;31.30;46.20
23801;DHT22;12081;48.614;10.226;2022-08-30T14:07:16;31.40;46.00
23801;DHT22;12081;48.614;10.226;2022-08-30T14:10:01;31.80;45.90
23801;DHT22;12081;48.614;10.226;2022-08-30T14:12:45;31.80;46.20
23801;DHT22;12081;48.614;10.226;2022-08-30T14:15:29;31.30;46.20
23801;DHT22;12081;48.614;10.226;2022-08-30T14:18:13;30.90;48.20
23801;DHT22;12081;48.614;10.226;2022-08-30T14:20:58;30.80;47.90
23801;DHT22;12081;48.614;10.226;2022-08-30T14:23:43;30.50;48.00
23801;DHT22;12081;48.614;10.226;2022-08-30T14:26:31;30.60;48.40
23801;DHT22;12081;48.614;10.226;2022-08-30T14:29:22;30.90;48.90
23801;DHT22;12081;48.614;10.226;2022-08-30T14:32:08;31.20;48.00
23801;DHT22;12081;48.614;10.226;2022-08-30T14:34:53;30.70;47.70
23801;DHT22;12081;48.614;10.226;2022-08-30T14:37:37;30.50;47.90
23801;DHT22;12081;48.614;10.226;2022-08-30T14:40:21;30.50;47.10
23801;DHT22;12081;48.614;10.226;2022-08-30T14:43:06;30.80;47.30
23801;DHT22;12081;48.614;10.226;2022-08-30T14:45:50;30.70;46.80
23801;DHT22;12081;48.614;10.226;2022-08-30T14:48:35;30.40;47.70
23801;DHT22;12081;48.614;10.226;2022-08-30T14:51:22;30.20;48.50
23801;DHT22;12081;48.614;10.226;2022-08-30T14:54:07;29.90;48.50
23801;DHT22;12081;48.614;10.226;2022-08-30T14:56:52;29.70;49.20
23801;DHT22;12081;48.614;10.226;2022-08-30T14:59:36;29.40;49.60
23801;DHT22;12081;48.614;10.226;2022-08-30T15:02:20;29.20;49.40
23801;DHT22;12081;48.614;10.226;2022-08-30T15:05:05;29.10;49.80
23801;DHT22;12081;48.614;10.226;2022-08-30T15:07:49;29.20;49.40
23801;DHT22;12081;48.614;10.226;2022-08-30T15:10:34;29.20;50.50
23801;DHT22;12081;48.614;10.226;2022-08-30T15:13:18;29.30;49.20
23801;DHT22;12081;48.614;10.226;2022-08-30T15:16:08;29.40;49.40
23801;DHT22;12081;48.614;10.226;2022-08-30T15:18:52;29.30;49.30
23801;DHT22;12081;48.614;10.226;2022-08-30T15:21:40;29.50;49.60
23801;DHT22;12081;48.614;10.226;2022-08-30T15:24:24;29.30;49.80
23801;DHT22;12081;48.614;10.226;2022-08-30T15:27:08;29.40;50.10
23801;DHT22;12081;48.614;10.226;2022-08-30T15:29:52;29.40;50.60
23801;DHT22;12081;48.614;10.226;2022-08-30T15:32:36;29.20;50.30
23801;DHT22;12081;48.614;10.226;2022-08-30T15:35:20;29.00;51.00
23801;DHT22;12081;48.614;10.226;2022-08-30T15:38:04;28.90;51.30
23801;DHT22;12081;48.614;10.226;2022-08-30T15:40:48;28.90;51.10
23801;DHT22;12081;48.614;10.226;2022-08-30T15:43:34;29.00;51.70
23801;DHT22;12081;48.614;10.226;2022-08-30T15:46:20;28.20;52.70
23801;DHT22;12081;48.614;10.226;2022-08-30T15:49:14;28.10;52.90
23801;DHT22;12081;48.614;10.226;2022-08-30T15:52:00;28.00;53.40
23801;DHT22;12081;48.614;10.226;2022-08-30T15:54:45;27.90;53.10
23801;DHT22;12081;48.614;10.226;2022-08-30T15:57:29;27.30;52.50
23801;DHT22;12081;48.614;10.226;2022-08-30T16:00:13;27.90;52.40
23801;DHT22;12081;48.614;10.226;2022-08-30T16:02:57;27.80;52.20
23801;DHT22;12081;48.614;10.226;2022-08-30T16:05:42;27.70;53.60
23801;DHT22;12081;48.614;10.226;2022-08-30T16:08:27;27.60;53.80
23801;DHT22;12081;48.614;10.226;2022-08-30T16:11:13;27.50;54.20
23801;DHT22;12081;48.614;10.226;2022-08-30T16:13:58;27.50;54.90
23801;DHT22;12081;48.614;10.226;2022-08-30T16:16:42;27.40;54.70
23801;DHT22;12081;48.614;10.226;2022-08-30T16:19:26;27.30;54.70
23801;DHT22;12081;48.614;10.226;2022-08-30T16:22:11;27.10;55.10
23801;DHT22;12081;48.614;10.226;2022-08-30T16:24:55;27.00;55.90
23801;DHT22;12081;48.614;10.226;2022-08-30T16:27:39;26.80;55.50
23801;DHT22;12081;48.614;10.226;2022-08-30T16:30:26;26.60;56.30
23801;DHT22;12081;48.614;10.226;2022-08-30T16:33:10;26.70;56.80
23801;DHT22;12081;48.614;10.226;2022-08-30T16:35:54;26.20;57.20
23801;DHT22;12081;48.614;10.226;2022-08-30T16:38:40;26.20;57.70
23801;DHT22;12081;48.614;10.226;2022-08-30T16:41:24;26.10;57.70
23801;DHT22;12081;48.614;10.226;2022-08-30T16:44:08;26.20;57.70
23801;DHT22;12081;48.614;10.226;2022-08-30T16:46:53;26.20;58.00
23801;DHT22;12081;48.614;10.226;2022-08-30T16:49:37;26.10;57.50
23801;DHT22;12081;48.614;10.226;2022-08-30T16:52:21;26.10;57.40
23801;DHT22;12081;48.614;10.226;2022-08-30T16:55:05;26.10;57.60
23801;DHT22;12081;48.614;10.226;2022-08-30T16:57:49;26.00;57.20
23801;DHT22;12081;48.614;10.226;2022-08-30T17:00:34;26.00;58.00
23801;DHT22;12081;48.614;10.226;2022-08-30T17:03:18;26.00;58.40
23801;DHT22;12081;48.614;10.226;2022-08-30T17:06:03;25.90;58.10
23801;DHT22;12081;48.614;10.226;2022-08-30T17:08:46;25.80;58.40
23801;DHT22;12081;48.614;10.226;2022-08-30T17:11:31;25.70;58.70
23801;DHT22;12081;48.614;10.226;2022-08-30T17:14:16;26.10;59.50
23801;DHT22;12081;48.614;10.226;2022-08-30T17:17:00;25.50;59.30
23801;DHT22;12081;48.614;10.226;2022-08-30T17:19:45;25.30;60.00
23801;DHT22;12081;48.614;10.226;2022-08-30T17:22:29;25.10;59.90
23801;DHT22;12081;48.614;10.226;2022-08-30T17:25:14;25.00;60.20
23801;DHT22;12081;48.614;10.226;2022-08-30T17:27:58;24.90;61.00
23801;DHT22;12081;48.614;10.226;2022-08-30T17:30:42;24.70;61.30
23801;DHT22;12081;48.614;10.226;2022-08-30T17:33:26;24.50;61.70
23801;DHT22;12081;48.614;10.226;2022-08-30T17:36:10;24.40;62.30
23801;DHT22;12081;48.614;10.226;2022-08-30T17:38:54;24.30;62.50
23801;DHT22;12081;48.614;10.226;2022-08-30T17:41:40;24.20;62.80
23801;DHT22;12081;48.614;10.226;2022-08-30T17:44:25;24.00;63.40
23801;DHT22;12081;48.614;10.226;2022-08-30T17:47:11;23.80;64.70
23801;DHT22;12081;48.614;10.226;2022-08-30T17:49:56;23.70;65.10
23801;DHT22;12081;48.614;10.226;2022-08-30T17:52:41;23.60;65.00
23801;DHT22;12081;48.614;10.226;2022-08-30T17:55:25;23.50;65.00
23801;DHT22;12081;48.614;10.226;2022-08-30T17:58:09;23.30;66.10
23801;DHT22;12081;48.614;10.226;2022-08-30T18:01:10;23.10;65.80
23801;DHT22;12081;48.614;10.226;2022-08-30T18:03:54;22.90;65.10
23801;DHT22;12081;48.614;10.226;2022-08-30T18:06:38;22.80;64.50
23801;DHT22;12081;48.614;10.226;2022-08-30T18:09:23;22.50;64.30
23801;DHT22;12081;48.614;10.226;2022-08-30T18:12:08;22.50;64.70
23801;DHT22;12081;48.614;10.226;2022-08-30T18:14:53;22.30;64.70
23801;DHT22;12081;48.614;10.226;2022-08-30T18:17:37;22.20;64.80
23801;DHT22;12081;48.614;10.226;2022-08-30T18:20:21;22.00;64.40
23801;DHT22;12081;48.614;10.226;2022-08-30T18:23:05;21.90;65.20
23801;DHT22;12081;48.614;10.226;2022-08-30T18:26:00;21.70;65.20
23801;DHT22;12081;48.614;10.226;2022-08-30T18:28:44;21.60;65.40
23801;DHT22;12081;48.614;10.226;2022-08-30T18:31:28;21.50;65.10
23801;DHT22;12081;48.614;10.226;2022-08-30T18:34:13;21.40;65.20
23801;DHT22;12081;48.614;10.226;2022-08-30T18:36:56;21.30;65.20
23801;DHT22;12081;48.614;10.226;2022-08-30T18:39:41;21.20;65.90
23801;DHT22;12081;48.614;10.226;2022-08-30T18:42:26;21.10;65.70
23801;DHT22;12081;48.614;10.226;2022-08-30T18:45:10;21.10;65.60
23801;DHT22;12081;48.614;10.226;2022-08-30T18:47:54;21.10;65.60